sensor_id;sensor_type;location;lat;lon;timestamp;P1;durP1;ratioP1;P2;durP2;ratioP2
82920;SDS011;72696;52.372;9.722;2023-12-20T00:00:45;9.25;;;4.85;;
82920;SDS011;72696;52.372;9.722;2023-12-20T00:03:11;8.73;;;4.97;;
82920;SDS011;72696;52.372;9.722;2023-12-20T00:05:36;7.47;;;4.93;;
82920;SDS011;72696;52.372;9.722;2023-12-20T00:08:06;7.03;;;4.22;;
82920;SDS011;72696;52.372;9.722;2023-12-20T00:10:31;7.28;;;4.38;;
82920;SDS011;72696;52.372;9.722;2023-12-20T00:12:56;9.40;;;5.15;;
82920;SDS011;72696;52.372;9.722;2023-12-20T00:15:22;10.15;;;5.18;;
82920;SDS011;72696;52.372;9.722;2023-12-20T00:17:47;9.23;;;5.00;;
82920;SDS011;72696;52.372;9.722;2023-12-20T00:20:13;9.57;;;4.72;;
82920;SDS011;72696;52.372;9.722;2023-12-20T00:22:38;9.10;;;4.38;;
82920;SDS011;72696;52.372;9.722;2023-12-20T00:25:03;8.02;;;3.92;;
82920;SDS011;72696;52.372;9.722;2023-12-20T00:27:29;8.43;;;4.15;;
82920;SDS011;72696;52.372;9.722;2023-12-20T00:29:54;9.63;;;4.40;;
82920;SDS011;72696;52.372;9.722;2023-12-20T00:32:20;7.22;;;4.22;;
82920;SDS011;72696;52.372;9.722;2023-12-20T00:34:45;6.55;;;3.33;;
82920;SDS011;72696;52.372;9.722;2023-12-20T00:37:10;8.93;;;4.05;;
82920;SDS011;72696;52.372;9.722;2023-12-20T00:39:36;10.38;;;4.13;;
82920;SDS011;72696;52.372;9.722;2023-12-20T00:42:01;6.93;;;3.70;;
82920;SDS011;72696;52.372;9.722;2023-12-20T00:44:26;8.07;;;3.60;;
82920;SDS011;72696;52.372;9.722;2023-12-20T00:46:52;11.18;;;4.10;;
82920;SDS011;72696;52.372;9.722;2023-12-20T00:49:17;7.07;;;3.75;;
82920;SDS011;72696;52.372;9.722;2023-12-20T00:51:42;7.22;;;3.80;;
82920;SDS011;72696;52.372;9.722;2023-12-20T00:54:08;9.02;;;3.40;;
82920;SDS011;72696;52.372;9.722;2023-12-20T00:56:34;10.48;;;3.80;;
82920;SDS011;72696;52.372;9.722;2023-12-20T00:58:59;7.22;;;3.20;;
82920;SDS011;72696;52.372;9.722;2023-12-20T01:01:24;9.85;;;2.80;;
82920;SDS011;72696;52.372;9.722;2023-12-20T01:03:50;7.60;;;2.70;;
82920;SDS011;72696;52.372;9.722;2023-12-20T01:06:16;5.63;;;2.60;;
82920;SDS011;72696;52.372;9.722;2023-12-20T01:08:41;6.15;;;2.60;;
82920;SDS011;72696;52.372;9.722;2023-12-20T01:11:07;7.13;;;2.38;;
82920;SDS011;72696;52.372;9.722;2023-12-20T01:13:32;5.53;;;2.47;;
82920;SDS011;72696;52.372;9.722;2023-12-20T01:15:57;8.38;;;2.88;;
82920;SDS011;72696;52.372;9.722;2023-12-20T01:18:23;7.53;;;2.50;;
82920;SDS011;72696;52.372;9.722;2023-12-20T01:20:48;8.68;;;2.53;;
82920;SDS011;72696;52.372;9.722;2023-12-20T01:23:13;7.00;;;2.55;;
82920;SDS011;72696;52.372;9.722;2023-12-20T01:25:39;6.88;;;2.20;;
82920;SDS011;72696;52.372;9.722;2023-12-20T01:28:04;4.00;;;2.55;;
82920;SDS011;72696;52.372;9.722;2023-12-20T01:30:30;5.43;;;2.60;;
82920;SDS011;72696;52.372;9.722;2023-12-20T01:32:55;7.15;;;3.28;;
82920;SDS011;72696;52.372;9.722;2023-12-20T01:35:20;8.23;;;2.50;;
82920;SDS011;72696;52.372;9.722;2023-12-20T01:37:45;7.72;;;3.40;;
82920;SDS011;72696;52.372;9.722;2023-12-20T01:40:11;4.45;;;2.25;;
82920;SDS011;72696;52.372;9.722;2023-12-20T01:42:36;5.65;;;2.20;;
82920;SDS011;72696;52.372;9.722;2023-12-20T01:45:02;5.93;;;2.42;;
82920;SDS011;72696;52.372;9.722;2023-12-20T01:47:28;6.75;;;2.47;;
82920;SDS011;72696;52.372;9.722;2023-12-20T01:49:53;5.47;;;2.40;;
82920;SDS011;72696;52.372;9.722;2023-12-20T01:52:19;4.35;;;2.33;;
82920;SDS011;72696;52.372;9.722;2023-12-20T01:54:45;7.03;;;2.40;;
82920;SDS011;72696;52.372;9.722;2023-12-20T01:57:10;8.85;;;2.22;;
82920;SDS011;72696;52.372;9.722;2023-12-20T01:59:36;6.82;;;2.95;;
82920;SDS011;72696;52.372;9.722;2023-12-20T02:02:03;6.25;;;2.38;;
82920;SDS011;72696;52.372;9.722;2023-12-20T02:04:28;3.35;;;2.00;;
82920;SDS011;72696;52.372;9.722;2023-12-20T02:06:54;6.80;;;2.50;;
82920;SDS011;72696;52.372;9.722;2023-12-20T02:09:21;5.03;;;2.25;;
82920;SDS011;72696;52.372;9.722;2023-12-20T02:11:47;6.13;;;2.45;;
82920;SDS011;72696;52.372;9.722;2023-12-20T02:14:14;8.55;;;2.85;;
82920;SDS011;72696;52.372;9.722;2023-12-20T02:16:40;4.38;;;2.47;;
82920;SDS011;72696;52.372;9.722;2023-12-20T02:19:05;7.03;;;2.50;;
82920;SDS011;72696;52.372;9.722;2023-12-20T02:21:37;5.97;;;2.50;;
82920;SDS011;72696;52.372;9.722;2023-12-20T02:24:03;7.05;;;2.22;;
82920;SDS011;72696;52.372;9.722;2023-12-20T02:26:28;5.43;;;2.20;;
82920;SDS011;72696;52.372;9.722;2023-12-20T02:28:54;6.70;;;2.05;;
82920;SDS011;72696;52.372;9.722;2023-12-20T02:31:23;8.07;;;2.60;;
82920;SDS011;72696;52.372;9.722;2023-12-20T02:33:48;5.85;;;2.50;;
82920;SDS011;72696;52.372;9.722;2023-12-20T02:36:14;7.47;;;2.53;;
82920;SDS011;72696;52.372;9.722;2023-12-20T02:38:39;10.05;;;2.35;;
82920;SDS011;72696;52.372;9.722;2023-12-20T02:41:04;4.65;;;2.15;;
82920;SDS011;72696;52.372;9.722;2023-12-20T02:43:30;5.03;;;2.70;;
82920;SDS011;72696;52.372;9.722;2023-12-20T02:45:55;7.85;;;2.72;;
82920;SDS011;72696;52.372;9.722;2023-12-20T02:48:20;4.53;;;2.50;;
82920;SDS011;72696;52.372;9.722;2023-12-20T02:50:46;8.00;;;2.63;;
82920;SDS011;72696;52.372;9.722;2023-12-20T02:53:12;6.07;;;2.53;;
82920;SDS011;72696;52.372;9.722;2023-12-20T02:55:37;8.27;;;2.58;;
82920;SDS011;72696;52.372;9.722;2023-12-20T02:58:02;5.53;;;2.47;;
82920;SDS011;72696;52.372;9.722;2023-12-20T03:00:28;5.80;;;2.50;;
82920;SDS011;72696;52.372;9.722;2023-12-20T03:02:53;4.55;;;2.42;;
82920;SDS011;72696;52.372;9.722;2023-12-20T03:05:19;8.05;;;2.63;;
82920;SDS011;72696;52.372;9.722;2023-12-20T03:07:45;9.07;;;3.17;;
82920;SDS011;72696;52.372;9.722;2023-12-20T03:10:11;9.52;;;2.97;;
82920;SDS011;72696;52.372;9.722;2023-12-20T03:12:36;10.18;;;2.60;;
82920;SDS011;72696;52.372;9.722;2023-12-20T03:15:01;5.05;;;2.17;;
82920;SDS011;72696;52.372;9.722;2023-12-20T03:17:27;8.57;;;2.92;;
82920;SDS011;72696;52.372;9.722;2023-12-20T03:19:52;4.85;;;2.17;;
82920;SDS011;72696;52.372;9.722;2023-12-20T03:22:18;5.00;;;2.00;;
82920;SDS011;72696;52.372;9.722;2023-12-20T03:24:43;5.88;;;2.33;;
82920;SDS011;72696;52.372;9.722;2023-12-20T03:27:08;7.55;;;1.98;;
82920;SDS011;72696;52.372;9.722;2023-12-20T03:29:34;7.00;;;2.15;;
82920;SDS011;72696;52.372;9.722;2023-12-20T03:31:59;5.97;;;1.75;;
82920;SDS011;72696;52.372;9.722;2023-12-20T03:34:25;6.20;;;1.80;;
82920;SDS011;72696;52.372;9.722;2023-12-20T03:36:51;6.72;;;2.00;;
82920;SDS011;72696;52.372;9.722;2023-12-20T03:39:17;3.97;;;1.77;;
82920;SDS011;72696;52.372;9.722;2023-12-20T03:41:42;5.72;;;1.83;;
82920;SDS011;72696;52.372;9.722;2023-12-20T03:44:07;3.20;;;1.48;;
82920;SDS011;72696;52.372;9.722;2023-12-20T03:46:33;7.18;;;1.70;;
82920;SDS011;72696;52.372;9.722;2023-12-20T03:48:58;6.93;;;1.80;;
82920;SDS011;72696;52.372;9.722;2023-12-20T03:51:23;3.15;;;1.42;;
82920;SDS011;72696;52.372;9.722;2023-12-20T03:53:48;7.70;;;1.83;;
82920;SDS011;72696;52.372;9.722;2023-12-20T03:56:14;5.15;;;1.75;;
82920;SDS011;72696;52.372;9.722;2023-12-20T03:58:39;3.75;;;2.50;;
82920;SDS011;72696;52.372;9.722;2023-12-20T04:01:09;5.50;;;1.85;;
82920;SDS011;72696;52.372;9.722;2023-12-20T04:03:35;6.07;;;1.92;;
82920;SDS011;72696;52.372;9.722;2023-12-20T04:06:01;8.57;;;1.88;;
82920;SDS011;72696;52.372;9.722;2023-12-20T04:08:26;5.28;;;1.80;;
82920;SDS011;72696;52.372;9.722;2023-12-20T04:10:51;6.78;;;2.08;;
82920;SDS011;72696;52.372;9.722;2023-12-20T04:13:17;4.97;;;1.85;;
82920;SDS011;72696;52.372;9.722;2023-12-20T04:15:42;6.50;;;1.90;;
82920;SDS011;72696;52.372;9.722;2023-12-20T04:18:07;5.88;;;2.25;;
82920;SDS011;72696;52.372;9.722;2023-12-20T04:20:33;4.15;;;2.05;;
82920;SDS011;72696;52.372;9.722;2023-12-20T04:22:58;6.57;;;2.20;;
82920;SDS011;72696;52.372;9.722;2023-12-20T04:25:23;6.40;;;2.20;;
82920;SDS011;72696;52.372;9.722;2023-12-20T04:27:49;6.32;;;2.45;;
82920;SDS011;72696;52.372;9.722;2023-12-20T04:30:14;8.05;;;2.20;;
82920;SDS011;72696;52.372;9.722;2023-12-20T04:32:39;7.88;;;2.50;;
82920;SDS011;72696;52.372;9.722;2023-12-20T04:35:05;10.18;;;1.92;;
82920;SDS011;72696;52.372;9.722;2023-12-20T04:37:30;10.57;;;2.35;;
82920;SDS011;72696;52.372;9.722;2023-12-20T04:39:56;5.72;;;2.15;;
82920;SDS011;72696;52.372;9.722;2023-12-20T04:42:21;5.55;;;2.42;;
82920;SDS011;72696;52.372;9.722;2023-12-20T04:44:46;11.13;;;2.67;;
82920;SDS011;72696;52.372;9.722;2023-12-20T04:47:12;6.30;;;2.70;;
82920;SDS011;72696;52.372;9.722;2023-12-20T04:49:37;11.82;;;2.78;;
82920;SDS011;72696;52.372;9.722;2023-12-20T04:52:02;8.60;;;2.40;;
82920;SDS011;72696;52.372;9.722;2023-12-20T04:54:28;5.70;;;2.40;;
82920;SDS011;72696;52.372;9.722;2023-12-20T04:56:53;6.93;;;2.15;;
82920;SDS011;72696;52.372;9.722;2023-12-20T04:59:19;5.88;;;2.50;;
82920;SDS011;72696;52.372;9.722;2023-12-20T05:01:44;7.35;;;2.40;;
82920;SDS011;72696;52.372;9.722;2023-12-20T05:04:09;4.85;;;2.10;;
82920;SDS011;72696;52.372;9.722;2023-12-20T05:06:35;5.60;;;2.00;;
82920;SDS011;72696;52.372;9.722;2023-12-20T05:09:00;7.57;;;2.55;;
82920;SDS011;72696;52.372;9.722;2023-12-20T05:11:25;8.95;;;3.15;;
82920;SDS011;72696;52.372;9.722;2023-12-20T05:13:51;6.30;;;2.60;;
82920;SDS011;72696;52.372;9.722;2023-12-20T05:16:16;10.13;;;2.90;;
82920;SDS011;72696;52.372;9.722;2023-12-20T05:18:43;9.70;;;2.42;;
82920;SDS011;72696;52.372;9.722;2023-12-20T05:21:08;9.70;;;2.50;;
82920;SDS011;72696;52.372;9.722;2023-12-20T05:23:34;4.28;;;2.20;;
82920;SDS011;72696;52.372;9.722;2023-12-20T05:25:59;5.88;;;2.72;;
82920;SDS011;72696;52.372;9.722;2023-12-20T05:28:25;9.52;;;2.50;;
82920;SDS011;72696;52.372;9.722;2023-12-20T05:30:51;6.63;;;3.03;;
82920;SDS011;72696;52.372;9.722;2023-12-20T05:33:16;4.63;;;2.70;;
82920;SDS011;72696;52.372;9.722;2023-12-20T05:35:41;12.95;;;3.53;;
82920;SDS011;72696;52.372;9.722;2023-12-20T05:38:07;8.15;;;3.13;;
82920;SDS011;72696;52.372;9.722;2023-12-20T05:40:32;8.07;;;2.97;;
82920;SDS011;72696;52.372;9.722;2023-12-20T05:42:57;6.53;;;2.78;;
82920;SDS011;72696;52.372;9.722;2023-12-20T05:45:23;8.38;;;3.20;;
82920;SDS011;72696;52.372;9.722;2023-12-20T05:47:48;12.38;;;2.63;;
82920;SDS011;72696;52.372;9.722;2023-12-20T05:50:13;10.18;;;2.97;;
82920;SDS011;72696;52.372;9.722;2023-12-20T05:52:39;8.02;;;2.88;;
82920;SDS011;72696;52.372;9.722;2023-12-20T05:55:04;4.35;;;2.65;;
82920;SDS011;72696;52.372;9.722;2023-12-20T05:57:29;7.25;;;3.45;;
82920;SDS011;72696;52.372;9.722;2023-12-20T05:59:55;10.02;;;2.85;;
82920;SDS011;72696;52.372;9.722;2023-12-20T06:02:20;7.30;;;2.80;;
82920;SDS011;72696;52.372;9.722;2023-12-20T06:04:45;6.13;;;2.97;;
82920;SDS011;72696;52.372;9.722;2023-12-20T06:07:11;8.32;;;2.75;;
82920;SDS011;72696;52.372;9.722;2023-12-20T06:09:37;7.50;;;3.00;;
82920;SDS011;72696;52.372;9.722;2023-12-20T06:12:02;7.65;;;3.13;;
82920;SDS011;72696;52.372;9.722;2023-12-20T06:14:28;10.13;;;3.03;;
82920;SDS011;72696;52.372;9.722;2023-12-20T06:16:55;8.70;;;3.25;;
82920;SDS011;72696;52.372;9.722;2023-12-20T06:19:20;7.80;;;3.22;;
82920;SDS011;72696;52.372;9.722;2023-12-20T06:21:46;8.02;;;3.38;;
82920;SDS011;72696;52.372;9.722;2023-12-20T06:24:11;9.98;;;3.40;;
82920;SDS011;72696;52.372;9.722;2023-12-20T06:26:36;8.80;;;3.20;;
82920;SDS011;72696;52.372;9.722;2023-12-20T06:29:02;6.47;;;2.50;;
82920;SDS011;72696;52.372;9.722;2023-12-20T06:31:27;15.13;;;3.78;;
82920;SDS011;72696;52.372;9.722;2023-12-20T06:33:53;12.30;;;3.17;;
82920;SDS011;72696;52.372;9.722;2023-12-20T06:36:22;8.65;;;3.45;;
82920;SDS011;72696;52.372;9.722;2023-12-20T06:38:51;4.93;;;2.88;;
82920;SDS011;72696;52.372;9.722;2023-12-20T06:41:16;9.57;;;2.97;;
82920;SDS011;72696;52.372;9.722;2023-12-20T06:43:42;6.57;;;3.10;;
82920;SDS011;72696;52.372;9.722;2023-12-20T06:46:07;8.18;;;2.92;;
82920;SDS011;72696;52.372;9.722;2023-12-20T06:48:33;8.55;;;3.22;;
82920;SDS011;72696;52.372;9.722;2023-12-20T06:50:59;8.40;;;3.15;;
82920;SDS011;72696;52.372;9.722;2023-12-20T06:53:25;8.90;;;2.90;;
82920;SDS011;72696;52.372;9.722;2023-12-20T06:55:50;8.20;;;3.30;;
82920;SDS011;72696;52.372;9.722;2023-12-20T06:58:16;8.45;;;3.33;;
82920;SDS011;72696;52.372;9.722;2023-12-20T07:00:41;11.30;;;3.22;;
82920;SDS011;72696;52.372;9.722;2023-12-20T07:03:07;7.63;;;3.13;;
82920;SDS011;72696;52.372;9.722;2023-12-20T07:05:32;6.70;;;2.70;;
82920;SDS011;72696;52.372;9.722;2023-12-20T07:07:58;9.65;;;3.03;;
82920;SDS011;72696;52.372;9.722;2023-12-20T07:10:23;9.27;;;3.50;;
82920;SDS011;72696;52.372;9.722;2023-12-20T07:12:49;10.68;;;4.38;;
82920;SDS011;72696;52.372;9.722;2023-12-20T07:15:16;9.32;;;2.88;;
82920;SDS011;72696;52.372;9.722;2023-12-20T07:17:41;11.05;;;3.55;;
82920;SDS011;72696;52.372;9.722;2023-12-20T07:20:07;12.25;;;3.30;;
82920;SDS011;72696;52.372;9.722;2023-12-20T07:22:35;10.50;;;3.05;;
82920;SDS011;72696;52.372;9.722;2023-12-20T07:25:01;11.70;;;3.35;;
82920;SDS011;72696;52.372;9.722;2023-12-20T07:27:26;7.45;;;3.25;;
82920;SDS011;72696;52.372;9.722;2023-12-20T07:29:52;10.23;;;3.38;;
82920;SDS011;72696;52.372;9.722;2023-12-20T07:32:17;9.23;;;3.13;;
82920;SDS011;72696;52.372;9.722;2023-12-20T07:34:43;10.45;;;3.10;;
82920;SDS011;72696;52.372;9.722;2023-12-20T07:37:08;11.02;;;3.53;;
82920;SDS011;72696;52.372;9.722;2023-12-20T07:39:36;8.38;;;2.88;;
82920;SDS011;72696;52.372;9.722;2023-12-20T07:42:02;5.80;;;3.10;;
82920;SDS011;72696;52.372;9.722;2023-12-20T07:44:27;9.02;;;3.25;;
82920;SDS011;72696;52.372;9.722;2023-12-20T07:46:53;11.05;;;3.63;;
82920;SDS011;72696;52.372;9.722;2023-12-20T07:49:18;6.75;;;2.75;;
82920;SDS011;72696;52.372;9.722;2023-12-20T07:51:44;6.28;;;2.47;;
82920;SDS011;72696;52.372;9.722;2023-12-20T07:54:09;9.52;;;3.30;;
82920;SDS011;72696;52.372;9.722;2023-12-20T07:56:35;7.88;;;3.05;;
82920;SDS011;72696;52.372;9.722;2023-12-20T07:59:00;12.32;;;2.72;;
82920;SDS011;72696;52.372;9.722;2023-12-20T08:01:26;8.95;;;2.90;;
82920;SDS011;72696;52.372;9.722;2023-12-20T08:03:51;7.85;;;2.95;;
82920;SDS011;72696;52.372;9.722;2023-12-20T08:06:17;7.93;;;3.15;;
82920;SDS011;72696;52.372;9.722;2023-12-20T08:08:42;7.60;;;2.75;;
82920;SDS011;72696;52.372;9.722;2023-12-20T08:11:08;12.80;;;3.63;;
82920;SDS011;72696;52.372;9.722;2023-12-20T08:13:33;8.32;;;3.17;;
82920;SDS011;72696;52.372;9.722;2023-12-20T08:15:59;9.13;;;3.00;;
82920;SDS011;72696;52.372;9.722;2023-12-20T08:18:24;14.65;;;3.60;;
82920;SDS011;72696;52.372;9.722;2023-12-20T08:20:49;9.02;;;3.40;;
82920;SDS011;72696;52.372;9.722;2023-12-20T08:23:17;9.07;;;3.38;;
82920;SDS011;72696;52.372;9.722;2023-12-20T08:25:43;8.65;;;3.22;;
82920;SDS011;72696;52.372;9.722;2023-12-20T08:28:08;8.40;;;3.22;;
82920;SDS011;72696;52.372;9.722;2023-12-20T08:30:33;7.25;;;3.08;;
82920;SDS011;72696;52.372;9.722;2023-12-20T08:32:59;10.43;;;4.30;;
82920;SDS011;72696;52.372;9.722;2023-12-20T08:35:25;8.30;;;2.63;;
82920;SDS011;72696;52.372;9.722;2023-12-20T08:37:50;8.50;;;3.00;;
82920;SDS011;72696;52.372;9.722;2023-12-20T08:40:15;7.68;;;3.30;;
82920;SDS011;72696;52.372;9.722;2023-12-20T08:42:41;8.05;;;3.42;;
82920;SDS011;72696;52.372;9.722;2023-12-20T08:45:06;9.85;;;3.00;;
82920;SDS011;72696;52.372;9.722;2023-12-20T08:47:32;5.15;;;2.80;;
82920;SDS011;72696;52.372;9.722;2023-12-20T08:49:57;9.18;;;3.33;;
82920;SDS011;72696;52.372;9.722;2023-12-20T08:52:25;8.30;;;3.03;;
82920;SDS011;72696;52.372;9.722;2023-12-20T08:54:52;9.27;;;2.95;;
82920;SDS011;72696;52.372;9.722;2023-12-20T08:57:19;6.22;;;3.05;;
82920;SDS011;72696;52.372;9.722;2023-12-20T08:59:46;10.00;;;3.05;;
82920;SDS011;72696;52.372;9.722;2023-12-20T09:02:12;8.95;;;3.38;;
82920;SDS011;72696;52.372;9.722;2023-12-20T09:04:37;9.25;;;2.95;;
82920;SDS011;72696;52.372;9.722;2023-12-20T09:07:03;12.13;;;3.08;;
82920;SDS011;72696;52.372;9.722;2023-12-20T09:09:28;10.60;;;3.50;;
82920;SDS011;72696;52.372;9.722;2023-12-20T09:11:57;8.57;;;2.88;;
82920;SDS011;72696;52.372;9.722;2023-12-20T09:14:22;8.55;;;3.15;;
82920;SDS011;72696;52.372;9.722;2023-12-20T09:16:48;7.72;;;3.25;;
82920;SDS011;72696;52.372;9.722;2023-12-20T09:19:15;11.23;;;3.10;;
82920;SDS011;72696;52.372;9.722;2023-12-20T09:21:41;11.73;;;3.33;;
82920;SDS011;72696;52.372;9.722;2023-12-20T09:24:06;9.25;;;3.38;;
82920;SDS011;72696;52.372;9.722;2023-12-20T09:26:32;8.38;;;3.33;;
82920;SDS011;72696;52.372;9.722;2023-12-20T09:28:57;7.57;;;3.33;;
82920;SDS011;72696;52.372;9.722;2023-12-20T09:31:22;9.88;;;3.50;;
82920;SDS011;72696;52.372;9.722;2023-12-20T09:33:48;8.23;;;2.80;;
82920;SDS011;72696;52.372;9.722;2023-12-20T09:36:13;11.05;;;3.97;;
82920;SDS011;72696;52.372;9.722;2023-12-20T09:38:39;8.40;;;3.67;;
82920;SDS011;72696;52.372;9.722;2023-12-20T09:41:04;8.48;;;3.05;;
82920;SDS011;72696;52.372;9.722;2023-12-20T09:43:31;7.43;;;3.33;;
82920;SDS011;72696;52.372;9.722;2023-12-20T09:45:59;7.88;;;3.10;;
82920;SDS011;72696;52.372;9.722;2023-12-20T09:48:25;6.88;;;2.90;;
82920;SDS011;72696;52.372;9.722;2023-12-20T09:50:51;8.10;;;3.10;;
82920;SDS011;72696;52.372;9.722;2023-12-20T09:53:17;6.43;;;2.75;;
82920;SDS011;72696;52.372;9.722;2023-12-20T09:55:42;14.27;;;3.50;;
82920;SDS011;72696;52.372;9.722;2023-12-20T09:58:08;9.57;;;3.28;;
82920;SDS011;72696;52.372;9.722;2023-12-20T10:00:37;11.45;;;3.25;;
82920;SDS011;72696;52.372;9.722;2023-12-20T10:03:02;8.23;;;3.08;;
82920;SDS011;72696;52.372;9.722;2023-12-20T10:05:29;6.75;;;2.85;;
82920;SDS011;72696;52.372;9.722;2023-12-20T10:07:58;8.38;;;2.47;;
82920;SDS011;72696;52.372;9.722;2023-12-20T10:10:24;8.48;;;3.17;;
82920;SDS011;72696;52.372;9.722;2023-12-20T10:13:02;7.90;;;2.90;;
82920;SDS011;72696;52.372;9.722;2023-12-20T10:15:29;7.70;;;3.25;;
82920;SDS011;72696;52.372;9.722;2023-12-20T10:17:55;6.68;;;3.33;;
82920;SDS011;72696;52.372;9.722;2023-12-20T10:20:21;8.15;;;2.80;;
82920;SDS011;72696;52.372;9.722;2023-12-20T10:22:46;11.13;;;3.17;;
82920;SDS011;72696;52.372;9.722;2023-12-20T10:25:12;7.30;;;2.97;;
82920;SDS011;72696;52.372;9.722;2023-12-20T10:27:37;7.18;;;2.63;;
82920;SDS011;72696;52.372;9.722;2023-12-20T10:30:03;11.07;;;3.22;;
82920;SDS011;72696;52.372;9.722;2023-12-20T10:32:29;6.55;;;3.03;;
82920;SDS011;72696;52.372;9.722;2023-12-20T10:34:55;9.15;;;3.28;;
82920;SDS011;72696;52.372;9.722;2023-12-20T10:37:21;5.25;;;2.60;;
82920;SDS011;72696;52.372;9.722;2023-12-20T10:39:50;8.40;;;2.90;;
82920;SDS011;72696;52.372;9.722;2023-12-20T10:42:18;5.60;;;2.65;;
82920;SDS011;72696;52.372;9.722;2023-12-20T10:44:46;6.25;;;2.50;;
82920;SDS011;72696;52.372;9.722;2023-12-20T10:47:11;7.75;;;2.58;;
82920;SDS011;72696;52.372;9.722;2023-12-20T10:49:38;10.15;;;2.88;;
82920;SDS011;72696;52.372;9.722;2023-12-20T10:52:04;8.18;;;3.33;;
82920;SDS011;72696;52.372;9.722;2023-12-20T10:54:30;9.68;;;3.80;;
82920;SDS011;72696;52.372;9.722;2023-12-20T10:59:23;8.40;;;2.97;;
82920;SDS011;72696;52.372;9.722;2023-12-20T11:01:50;7.57;;;3.00;;
82920;SDS011;72696;52.372;9.722;2023-12-20T11:04:17;8.13;;;3.15;;
82920;SDS011;72696;52.372;9.722;2023-12-20T11:09:31;6.38;;;2.58;;
82920;SDS011;72696;52.372;9.722;2023-12-20T11:15:03;7.28;;;2.97;;
82920;SDS011;72696;52.372;9.722;2023-12-20T11:17:29;5.25;;;2.60;;
82920;SDS011;72696;52.372;9.722;2023-12-20T11:22:20;8.52;;;3.00;;
82920;SDS011;72696;52.372;9.722;2023-12-20T11:24:46;7.63;;;3.08;;
82920;SDS011;72696;52.372;9.722;2023-12-20T11:27:13;10.90;;;2.78;;
82920;SDS011;72696;52.372;9.722;2023-12-20T11:29:38;11.55;;;2.95;;
82920;SDS011;72696;52.372;9.722;2023-12-20T11:34:50;6.18;;;2.53;;
82920;SDS011;72696;52.372;9.722;2023-12-20T11:37:16;6.72;;;2.88;;
82920;SDS011;72696;52.372;9.722;2023-12-20T11:39:42;5.85;;;3.10;;
82920;SDS011;72696;52.372;9.722;2023-12-20T11:42:08;6.93;;;3.00;;
82920;SDS011;72696;52.372;9.722;2023-12-20T11:44:35;12.40;;;3.65;;
82920;SDS011;72696;52.372;9.722;2023-12-20T11:47:01;8.52;;;2.85;;
82920;SDS011;72696;52.372;9.722;2023-12-20T11:49:27;7.43;;;2.92;;
82920;SDS011;72696;52.372;9.722;2023-12-20T11:51:54;5.88;;;2.30;;
82920;SDS011;72696;52.372;9.722;2023-12-20T11:54:19;5.43;;;2.25;;
82920;SDS011;72696;52.372;9.722;2023-12-20T11:56:45;4.22;;;1.80;;
82920;SDS011;72696;52.372;9.722;2023-12-20T11:59:11;5.13;;;3.25;;
82920;SDS011;72696;52.372;9.722;2023-12-20T12:01:37;2.92;;;1.52;;
82920;SDS011;72696;52.372;9.722;2023-12-20T12:04:05;4.00;;;1.90;;
82920;SDS011;72696;52.372;9.722;2023-12-20T12:06:31;1.73;;;1.38;;
82920;SDS011;72696;52.372;9.722;2023-12-20T12:08:56;1.60;;;1.20;;
82920;SDS011;72696;52.372;9.722;2023-12-20T12:11:22;2.45;;;0.90;;
82920;SDS011;72696;52.372;9.722;2023-12-20T12:13:47;2.33;;;1.25;;
82920;SDS011;72696;52.372;9.722;2023-12-20T12:16:16;2.45;;;1.25;;
82920;SDS011;72696;52.372;9.722;2023-12-20T12:18:42;2.00;;;1.35;;
82920;SDS011;72696;52.372;9.722;2023-12-20T12:21:08;2.03;;;1.83;;
82920;SDS011;72696;52.372;9.722;2023-12-20T12:23:34;2.22;;;1.40;;
82920;SDS011;72696;52.372;9.722;2023-12-20T12:26:00;1.65;;;1.15;;
82920;SDS011;72696;52.372;9.722;2023-12-20T12:28:29;2.97;;;1.38;;
82920;SDS011;72696;52.372;9.722;2023-12-20T12:30:57;3.95;;;1.60;;
82920;SDS011;72696;52.372;9.722;2023-12-20T12:33:24;2.72;;;1.17;;
82920;SDS011;72696;52.372;9.722;2023-12-20T12:35:50;3.15;;;1.40;;
82920;SDS011;72696;52.372;9.722;2023-12-20T12:38:16;1.92;;;1.30;;
82920;SDS011;72696;52.372;9.722;2023-12-20T12:40:41;2.20;;;1.48;;
82920;SDS011;72696;52.372;9.722;2023-12-20T12:43:08;2.13;;;1.30;;
82920;SDS011;72696;52.372;9.722;2023-12-20T12:45:33;2.63;;;1.42;;
82920;SDS011;72696;52.372;9.722;2023-12-20T12:47:59;3.38;;;1.50;;
82920;SDS011;72696;52.372;9.722;2023-12-20T12:50:24;2.88;;;1.48;;
82920;SDS011;72696;52.372;9.722;2023-12-20T12:52:50;2.25;;;1.20;;
82920;SDS011;72696;52.372;9.722;2023-12-20T12:55:15;1.90;;;1.20;;
82920;SDS011;72696;52.372;9.722;2023-12-20T12:57:40;2.58;;;1.52;;
82920;SDS011;72696;52.372;9.722;2023-12-20T13:00:06;2.50;;;1.13;;
82920;SDS011;72696;52.372;9.722;2023-12-20T13:02:34;2.40;;;1.52;;
82920;SDS011;72696;52.372;9.722;2023-12-20T13:04:59;2.67;;;1.30;;
82920;SDS011;72696;52.372;9.722;2023-12-20T13:07:26;3.83;;;1.25;;
82920;SDS011;72696;52.372;9.722;2023-12-20T13:09:51;3.17;;;1.55;;
82920;SDS011;72696;52.372;9.722;2023-12-20T13:12:16;3.70;;;2.05;;
82920;SDS011;72696;52.372;9.722;2023-12-20T13:14:42;1.75;;;1.33;;
82920;SDS011;72696;52.372;9.722;2023-12-20T13:17:07;4.15;;;1.65;;
82920;SDS011;72696;52.372;9.722;2023-12-20T13:19:32;4.95;;;1.45;;
82920;SDS011;72696;52.372;9.722;2023-12-20T13:21:58;3.13;;;1.48;;
82920;SDS011;72696;52.372;9.722;2023-12-20T13:24:23;3.40;;;1.40;;
82920;SDS011;72696;52.372;9.722;2023-12-20T13:26:49;1.35;;;1.25;;
82920;SDS011;72696;52.372;9.722;2023-12-20T13:29:14;4.15;;;1.25;;
82920;SDS011;72696;52.372;9.722;2023-12-20T13:31:40;4.65;;;1.52;;
82920;SDS011;72696;52.372;9.722;2023-12-20T13:34:06;4.38;;;1.73;;
82920;SDS011;72696;52.372;9.722;2023-12-20T13:36:31;4.72;;;1.50;;
82920;SDS011;72696;52.372;9.722;2023-12-20T13:38:58;3.30;;;1.50;;
82920;SDS011;72696;52.372;9.722;2023-12-20T13:41:23;1.17;;;1.08;;
82920;SDS011;72696;52.372;9.722;2023-12-20T13:43:48;2.55;;;1.27;;
82920;SDS011;72696;52.372;9.722;2023-12-20T13:46:14;4.65;;;1.50;;
82920;SDS011;72696;52.372;9.722;2023-12-20T13:48:39;3.45;;;2.00;;
82920;SDS011;72696;52.372;9.722;2023-12-20T13:51:05;3.63;;;1.52;;
82920;SDS011;72696;52.372;9.722;2023-12-20T13:53:31;3.40;;;1.30;;
82920;SDS011;72696;52.372;9.722;2023-12-20T13:55:56;3.38;;;1.38;;
82920;SDS011;72696;52.372;9.722;2023-12-20T13:58:22;3.60;;;1.63;;
82920;SDS011;72696;52.372;9.722;2023-12-20T14:00:48;3.10;;;1.77;;
82920;SDS011;72696;52.372;9.722;2023-12-20T14:03:13;4.47;;;1.33;;
82920;SDS011;72696;52.372;9.722;2023-12-20T14:05:38;2.15;;;1.48;;
82920;SDS011;72696;52.372;9.722;2023-12-20T14:08:04;5.88;;;2.03;;
82920;SDS011;72696;52.372;9.722;2023-12-20T14:10:30;3.42;;;1.52;;
82920;SDS011;72696;52.372;9.722;2023-12-20T14:12:55;5.10;;;2.42;;
82920;SDS011;72696;52.372;9.722;2023-12-20T14:15:20;5.50;;;1.83;;
82920;SDS011;72696;52.372;9.722;2023-12-20T14:17:46;4.38;;;1.75;;
82920;SDS011;72696;52.372;9.722;2023-12-20T14:20:11;3.17;;;1.75;;
82920;SDS011;72696;52.372;9.722;2023-12-20T14:22:39;4.25;;;1.73;;
82920;SDS011;72696;52.372;9.722;2023-12-20T14:25:10;5.18;;;1.90;;
82920;SDS011;72696;52.372;9.722;2023-12-20T14:27:36;4.50;;;1.80;;
82920;SDS011;72696;52.372;9.722;2023-12-20T14:30:01;6.05;;;1.75;;
82920;SDS011;72696;52.372;9.722;2023-12-20T14:32:27;4.10;;;1.70;;
82920;SDS011;72696;52.372;9.722;2023-12-20T14:34:52;3.67;;;1.67;;
82920;SDS011;72696;52.372;9.722;2023-12-20T14:37:19;2.83;;;1.60;;
82920;SDS011;72696;52.372;9.722;2023-12-20T14:39:45;4.25;;;2.00;;
82920;SDS011;72696;52.372;9.722;2023-12-20T14:42:10;6.28;;;2.00;;
82920;SDS011;72696;52.372;9.722;2023-12-20T14:44:38;4.20;;;1.80;;
82920;SDS011;72696;52.372;9.722;2023-12-20T14:47:07;8.35;;;2.00;;
82920;SDS011;72696;52.372;9.722;2023-12-20T14:49:32;5.03;;;2.17;;